createdAt,value
2024-01-15T00:02:04.001Z,96300.29
2024-01-15T00:04:30.711Z,96297.06
2024-01-15T00:06:57.905Z,96294.00
2024-01-15T00:09:24.588Z,96294.54
2024-01-15T00:11:51.254Z,96290.77
2024-01-15T00:14:20.866Z,96294.09
2024-01-15T00:16:48.008Z,96287.17
2024-01-15T00:19:14.655Z,96284.80
2024-01-15T00:21:41.333Z,96288.41
2024-01-15T00:24:07.944Z,96286.35
2024-01-15T00:26:34.656Z,96282.21
2024-01-15T00:29:01.288Z,96282.59
2024-01-15T00:31:27.951Z,96285.59
2024-01-15T00:33:54.659Z,96282.52
2024-01-15T00:36:21.561Z,96282.91
2024-01-15T00:38:48.254Z,96271.09
2024-01-15T00:41:15.504Z,96273.48
2024-01-15T00:43:42.144Z,96276.56
2024-01-15T00:46:08.877Z,96282.00
2024-01-15T00:48:35.791Z,96280.00
2024-01-15T00:51:02.562Z,96287.00
2024-01-15T00:53:29.298Z,96282.63
2024-01-15T00:55:55.842Z,96280.86
2024-01-15T00:58:22.366Z,96272.88
2024-01-15T01:00:49.011Z,96265.80
2024-01-15T01:03:15.737Z,96266.58
2024-01-15T01:05:42.641Z,96267.73
2024-01-15T01:08:09.223Z,96262.66
2024-01-15T01:10:36.064Z,96257.98
2024-01-15T01:13:02.615Z,96255.91
2024-01-15T01:15:29.256Z,96253.30
2024-01-15T01:17:55.889Z,96252.46
2024-01-15T01:20:22.706Z,96248.39
2024-01-15T01:22:49.445Z,96247.31
2024-01-15T01:25:16.556Z,96241.34
2024-01-15T01:27:43.207Z,96242.88
2024-01-15T01:30:10.502Z,96245.25
2024-01-15T01:32:37.478Z,96240.55
2024-01-15T01:35:04.782Z,96234.89
2024-01-15T01:37:31.520Z,96232.58
2024-01-15T01:39:57.955Z,96228.29
2024-01-15T01:42:24.561Z,96219.30
2024-01-15T01:44:51.138Z,96222.91
2024-01-15T01:47:17.656Z,96222.75
2024-01-15T01:49:44.295Z,96219.39
2024-01-15T01:52:11.040Z,96218.31
2024-01-15T01:54:37.916Z,96220.70
2024-01-15T01:57:05.228Z,96218.16
2024-01-15T01:59:33.708Z,96217.23
2024-01-15T02:02:00.344Z,96211.87
2024-01-15T02:04:27.108Z,96209.88
2024-01-15T02:06:53.818Z,96210.02
2024-01-15T02:09:20.847Z,96207.58
2024-01-15T02:11:48.222Z,96207.73
2024-01-15T02:14:15.061Z,96205.34
2024-01-15T02:16:41.932Z,96202.11
2024-01-15T02:19:08.578Z,96194.45
2024-01-15T02:21:35.288Z,96191.54
2024-01-15T02:24:01.917Z,96188.54
2024-01-15T02:26:28.953Z,96184.25
2024-01-15T02:28:55.587Z,96184.11
2024-01-15T02:31:22.177Z,96182.18
2024-01-15T02:33:48.959Z,96186.70
2024-01-15T02:36:17.058Z,96179.19
2024-01-15T02:38:43.569Z,96175.80
2024-01-15T02:41:10.003Z,96170.53
2024-01-15T02:43:36.529Z,96170.90
2024-01-15T02:46:03.178Z,96164.36
2024-01-15T02:48:29.929Z,96164.99
2024-01-15T02:50:56.551Z,96158.17
2024-01-15T02:53:23.247Z,96160.16
2024-01-15T02:55:49.923Z,96161.86
2024-01-15T02:58:16.458Z,96161.45
2024-01-15T03:00:43.548Z,96162.78
2024-01-15T03:03:10.402Z,96157.07
2024-01-15T03:05:37.334Z,96158.08
2024-01-15T03:08:04.543Z,96155.09
2024-01-15T03:10:31.528Z,96158.16
2024-01-15T03:12:58.326Z,96156.62
2024-01-15T03:15:24.786Z,96161.75
2024-01-15T03:17:51.518Z,96156.30
2024-01-15T03:20:18.035Z,96154.38
2024-01-15T03:22:44.589Z,96156.91
2024-01-15T03:25:11.099Z,96160.16
2024-01-15T03:27:37.688Z,96157.56
2024-01-15T03:30:05.000Z,96162.14
2024-01-15T03:32:32.326Z,96162.30
2024-01-15T03:34:59.119Z,96161.48
2024-01-15T03:37:26.022Z,96156.00
2024-01-15T03:39:52.712Z,96156.94
2024-01-15T03:42:19.438Z,96157.09
2024-01-15T03:44:46.138Z,96154.48
2024-01-15T03:47:12.566Z,96156.55
2024-01-15T03:49:39.181Z,96151.56
2024-01-15T03:52:06.359Z,96142.97
2024-01-15T03:54:33.003Z,96139.30
2024-01-15T03:56:59.533Z,96137.53
2024-01-15T03:59:27.179Z,96133.77
2024-01-15T04:01:53.815Z,96128.46
2024-01-15T04:04:20.469Z,96128.93
2024-01-15T04:06:47.450Z,96124.48
2024-01-15T04:09:14.733Z,96124.10
2024-01-15T04:11:41.281Z,96123.18
2024-01-15T04:14:07.826Z,96120.09
2024-01-15T04:16:34.356Z,96117.34
2024-01-15T04:19:00.902Z,96121.97
2024-01-15T04:21:27.640Z,96121.26
2024-01-15T04:23:54.157Z,96116.13
2024-01-15T04:26:20.704Z,96117.66
2024-01-15T04:28:47.342Z,96113.98
2024-01-15T04:31:27.758Z,96108.60
2024-01-15T04:33:54.680Z,96110.98
2024-01-15T04:36:21.445Z,96107.38
2024-01-15T04:38:48.219Z,96106.84
2024-01-15T04:41:14.846Z,96097.86
2024-01-15T04:43:41.285Z,96098.02
2024-01-15T04:46:08.130Z,96095.87
2024-01-15T04:48:35.071Z,96093.64
2024-01-15T04:51:01.700Z,96092.34
2024-01-15T04:53:28.462Z,96091.27
2024-01-15T04:55:55.198Z,96089.41
2024-01-15T04:58:21.821Z,96089.20
2024-01-15T05:00:48.473Z,96083.98
2024-01-15T05:03:15.168Z,96081.91
2024-01-15T05:05:41.880Z,96080.23
2024-01-15T05:08:08.474Z,96082.23
2024-01-15T05:10:35.225Z,96077.34
2024-01-15T05:13:01.738Z,96076.65
2024-01-15T05:15:28.691Z,96072.67
2024-01-15T05:17:55.377Z,96072.02
2024-01-15T05:20:22.356Z,96069.20
2024-01-15T05:22:49.102Z,96064.00
2024-01-15T05:25:15.670Z,96063.71
2024-01-15T05:27:42.431Z,96060.05
2024-01-15T05:30:09.832Z,96061.52
2024-01-15T05:32:36.623Z,96060.93
2024-01-15T05:35:03.761Z,96061.41
2024-01-15T05:37:30.868Z,96062.73
2024-01-15T05:39:57.437Z,96063.69
2024-01-15T05:42:24.283Z,96057.79
2024-01-15T05:44:51.078Z,96055.27
2024-01-15T05:47:18.151Z,96054.61
2024-01-15T05:49:44.793Z,96049.48
2024-01-15T05:52:11.500Z,96046.88
2024-01-15T05:54:38.058Z,96045.11
2024-01-15T05:57:05.110Z,96047.29
2024-01-15T05:59:34.427Z,96042.76
2024-01-15T06:02:01.424Z,96040.19
2024-01-15T06:04:28.272Z,96037.13
2024-01-15T06:06:54.944Z,96038.06
2024-01-15T06:09:21.571Z,96037.54
2024-01-15T06:11:48.596Z,96040.85
2024-01-15T06:14:15.125Z,96039.95
2024-01-15T06:16:41.654Z,96041.64
2024-01-15T06:19:08.408Z,96041.66
2024-01-15T06:21:35.261Z,96041.59
2024-01-15T06:24:01.766Z,96034.02
2024-01-15T06:26:28.401Z,96032.17
2024-01-15T06:28:54.937Z,96034.95
2024-01-15T06:31:21.647Z,96035.05
2024-01-15T06:33:49.995Z,96036.98
2024-01-15T06:36:19.732Z,96035.39
2024-01-15T06:38:46.302Z,96033.71
2024-01-15T06:41:12.839Z,96035.95
2024-01-15T06:43:39.365Z,96037.27
2024-01-15T06:46:07.821Z,96034.05
2024-01-15T06:48:35.759Z,96025.63
2024-01-15T06:51:02.752Z,96025.80
2024-01-15T06:53:29.548Z,96025.19
2024-01-15T06:55:56.181Z,96023.45
2024-01-15T06:58:22.776Z,96022.08
2024-01-15T07:00:49.420Z,96018.94
2024-01-15T07:03:16.280Z,96018.20
2024-01-15T07:05:43.192Z,96018.52
2024-01-15T07:08:09.827Z,96026.67
2024-01-15T07:10:37.642Z,96028.38
2024-01-15T07:13:06.046Z,96028.43
2024-01-15T07:15:32.713Z,96025.44
2024-01-15T07:17:59.478Z,96021.25
2024-01-15T07:20:26.190Z,96021.02
2024-01-15T07:22:52.926Z,96014.89
2024-01-15T07:25:19.579Z,96015.69
2024-01-15T07:27:47.121Z,96015.55
2024-01-15T07:30:14.534Z,96015.23
2024-01-15T07:32:41.685Z,96009.18
2024-01-15T07:35:08.578Z,96006.84
2024-01-15T07:37:35.210Z,96013.77
2024-01-15T07:40:02.147Z,96013.38
2024-01-15T07:42:29.240Z,96012.48
2024-01-15T07:44:55.820Z,96011.87
2024-01-15T07:47:22.404Z,96008.50
2024-01-15T07:49:49.615Z,96007.61
2024-01-15T07:52:16.572Z,96003.23
2024-01-15T07:54:43.136Z,96002.55
2024-01-15T07:57:09.763Z,95999.05
2024-01-15T07:59:36.461Z,95993.31
2024-01-15T08:02:03.271Z,95982.64
2024-01-15T08:04:30.660Z,95987.26
2024-01-15T08:06:57.867Z,95985.51
2024-01-15T08:09:24.575Z,95986.97
2024-01-15T08:11:51.282Z,95986.00
2024-01-15T08:14:18.442Z,95983.25
2024-01-15T08:16:45.164Z,95983.34
2024-01-15T08:19:12.248Z,95984.11
2024-01-15T08:21:39.269Z,95977.99
2024-01-15T08:24:06.208Z,95970.63
2024-01-15T08:26:35.808Z,95968.18
2024-01-15T08:29:02.454Z,95976.10
2024-01-15T08:31:29.323Z,95972.90
2024-01-15T08:33:56.309Z,95969.14
2024-01-15T08:36:25.547Z,95969.06
2024-01-15T08:38:52.299Z,95968.77
2024-01-15T08:41:19.012Z,95969.77
2024-01-15T08:43:45.553Z,95968.73
2024-01-15T08:46:12.070Z,95965.80
2024-01-15T08:48:38.749Z,95963.14
2024-01-15T08:51:05.653Z,95958.01
2024-01-15T08:53:33.542Z,95964.31
2024-01-15T08:56:00.211Z,95957.41
2024-01-15T08:58:26.794Z,95957.89
2024-01-15T09:00:53.417Z,95955.27
2024-01-15T09:03:20.129Z,95949.06
2024-01-15T09:05:47.127Z,95952.52
2024-01-15T09:08:13.848Z,95951.85
2024-01-15T09:10:41.721Z,95946.71
2024-01-15T09:13:08.975Z,95945.58
2024-01-15T09:15:35.517Z,95944.04
2024-01-15T09:18:04.708Z,95935.95
2024-01-15T09:20:32.869Z,95928.57
2024-01-15T09:22:59.401Z,95932.81
2024-01-15T09:25:26.041Z,95927.98
2024-01-15T09:27:52.682Z,95926.92
2024-01-15T09:30:19.471Z,95933.25
2024-01-15T09:32:46.216Z,95922.82
2024-01-15T09:35:12.892Z,95920.84
2024-01-15T09:37:46.989Z,95916.33
2024-01-15T09:40:18.056Z,95917.28
2024-01-15T09:42:45.132Z,95911.93
2024-01-15T09:45:11.940Z,95913.59
2024-01-15T09:47:41.759Z,95908.02
2024-01-15T09:50:10.584Z,95901.66
2024-01-15T09:52:37.479Z,95901.91
2024-01-15T09:55:06.296Z,95903.94
2024-01-15T10:02:37.873Z,95910.05
2024-01-15T10:05:04.784Z,95911.23
2024-01-15T10:07:32.050Z,95911.88
2024-01-15T10:09:58.842Z,95913.07
2024-01-15T10:12:27.894Z,95913.55
2024-01-15T10:14:54.606Z,95913.65
2024-01-15T10:17:21.749Z,95910.58
2024-01-15T10:19:50.262Z,95909.61
2024-01-15T10:22:18.623Z,95909.30
2024-01-15T10:24:46.201Z,95908.80
2024-01-15T10:27:13.405Z,95905.58
2024-01-15T10:29:41.079Z,95898.98
2024-01-15T10:32:09.320Z,95899.45
2024-01-15T10:34:40.729Z,95892.23
2024-01-15T10:37:10.604Z,95883.40
2024-01-15T10:39:37.604Z,95879.71
2024-01-15T10:42:05.151Z,95876.56
2024-01-15T10:44:32.824Z,95879.02
2024-01-15T10:46:59.512Z,95872.92
2024-01-15T10:49:32.666Z,95870.09
2024-01-15T10:52:01.951Z,95865.17
2024-01-15T10:54:29.283Z,95858.40
2024-01-15T10:56:59.067Z,95851.33
2024-01-15T10:59:25.966Z,95847.72
2024-01-15T11:01:56.387Z,95836.98
2024-01-15T11:04:24.138Z,95830.55
2024-01-15T11:06:54.472Z,95830.44
2024-01-15T11:09:21.267Z,95828.30
2024-01-15T11:11:48.323Z,95831.08
2024-01-15T11:14:34.299Z,95833.09
2024-01-15T11:17:01.035Z,95834.26
2024-01-15T11:19:42.291Z,95831.66
2024-01-15T11:22:34.270Z,95832.05
2024-01-15T11:25:14.210Z,95830.07
2024-01-15T11:27:44.589Z,95834.24
2024-01-15T11:30:12.761Z,95834.55
2024-01-15T11:32:43.340Z,95829.93
2024-01-15T11:35:10.476Z,95827.78
2024-01-15T11:38:03.543Z,95832.70
2024-01-15T11:40:36.714Z,95835.84
2024-01-15T11:43:03.572Z,95833.59
2024-01-15T11:45:31.373Z,95831.21
2024-01-15T11:48:14.188Z,95830.37
2024-01-15T11:50:48.394Z,95832.20
2024-01-15T11:53:41.519Z,95835.50
2024-01-15T11:56:17.313Z,95834.79
2024-01-15T11:58:44.527Z,95836.86
2024-01-15T12:01:14.189Z,95833.45
2024-01-15T12:03:40.891Z,95837.06
2024-01-15T12:06:08.264Z,95837.59
2024-01-15T12:08:36.064Z,95835.89
2024-01-15T12:11:07.589Z,95837.10
2024-01-15T12:13:34.157Z,95834.33
2024-01-15T12:16:02.045Z,95834.41
2024-01-15T12:18:29.561Z,95828.02
2024-01-15T12:20:56.337Z,95830.02
2024-01-15T12:23:22.848Z,95830.83
2024-01-15T12:25:49.389Z,95830.75
2024-01-15T12:28:16.119Z,95829.45
2024-01-15T12:30:43.572Z,95827.90
2024-01-15T12:33:10.972Z,95826.13
2024-01-15T12:35:37.932Z,95822.73
2024-01-15T12:38:05.023Z,95824.02
2024-01-15T12:40:33.875Z,95826.86
2024-01-15T12:43:01.084Z,95823.64
2024-01-15T12:45:28.265Z,95818.39
2024-01-15T12:47:55.087Z,95817.23
2024-01-15T12:50:24.976Z,95815.02
2024-01-15T12:52:52.221Z,95802.39
2024-01-15T12:55:18.913Z,95810.16
2024-01-15T12:57:46.729Z,95809.69
2024-01-15T13:00:15.640Z,95808.75
2024-01-15T13:02:43.995Z,95812.74
2024-01-15T13:05:15.473Z,95816.98
2024-01-15T13:07:44.340Z,95816.50
2024-01-15T13:10:12.129Z,95818.02
2024-01-15T13:12:41.017Z,95823.95
2024-01-15T13:15:12.679Z,95824.70
2024-01-15T13:17:43.217Z,95829.77
2024-01-15T13:20:11.679Z,95827.16
2024-01-15T13:22:39.913Z,95831.92
2024-01-15T13:25:08.395Z,95826.39
2024-01-15T13:27:36.017Z,95823.99
2024-01-15T13:30:03.107Z,95822.68
2024-01-15T13:32:30.463Z,95820.30
2024-01-15T13:34:57.529Z,95821.68
2024-01-15T13:37:25.268Z,95819.14
2024-01-15T13:39:53.311Z,95819.29
2024-01-15T13:42:22.736Z,95816.23
2024-01-15T13:44:49.376Z,95819.01
2024-01-15T13:47:16.062Z,95815.09
2024-01-15T13:49:42.795Z,95815.63
2024-01-15T13:52:09.393Z,95817.56
2024-01-15T13:54:45.432Z,95819.17
2024-01-15T13:57:17.544Z,95819.02
2024-01-15T13:59:44.545Z,95825.48
2024-01-15T14:02:11.537Z,95828.17
2024-01-15T14:04:39.456Z,95830.48
2024-01-15T14:07:07.020Z,95829.41
2024-01-15T14:09:33.899Z,95835.02
2024-01-15T14:12:00.703Z,95837.95
2024-01-15T14:14:27.231Z,95832.25
2024-01-15T14:16:53.911Z,95829.70
2024-01-15T14:19:21.493Z,95827.95
2024-01-15T14:21:48.552Z,95831.65
2024-01-15T14:24:15.457Z,95830.58
2024-01-15T14:26:42.987Z,95829.56
2024-01-15T14:29:10.026Z,95832.64
2024-01-15T14:31:37.329Z,95830.80
2024-01-15T14:34:04.289Z,95837.02
2024-01-15T14:36:31.327Z,95836.70
2024-01-15T14:38:58.230Z,95841.70
2024-01-15T14:41:24.955Z,95840.92
2024-01-15T14:43:51.507Z,95840.54
2024-01-15T14:46:18.130Z,95843.91
2024-01-15T14:48:46.054Z,95840.00
2024-01-15T14:51:13.023Z,95839.37
2024-01-15T14:53:39.768Z,95835.14
2024-01-15T14:56:06.411Z,95832.07
2024-01-15T14:58:33.142Z,95829.83
2024-01-15T15:00:59.913Z,95825.05
2024-01-15T15:03:26.757Z,95829.20
2024-01-15T15:05:53.654Z,95834.29
2024-01-15T15:08:20.511Z,95832.19
2024-01-15T15:10:47.042Z,95834.80
2024-01-15T15:13:13.815Z,95836.86
2024-01-15T15:15:40.447Z,95841.77
2024-01-15T15:18:07.192Z,95839.39
2024-01-15T15:20:33.943Z,95836.39
2024-01-15T15:23:00.837Z,95831.23
2024-01-15T15:25:27.470Z,95837.15
2024-01-15T15:27:54.334Z,95841.84
2024-01-15T15:30:21.127Z,95835.45
2024-01-15T15:32:47.725Z,95838.68
2024-01-15T15:35:14.558Z,95846.75
2024-01-15T15:37:41.374Z,95844.37
2024-01-15T15:40:09.877Z,95851.56
2024-01-15T15:42:37.399Z,95851.73
2024-01-15T15:45:05.478Z,95851.71
2024-01-15T15:47:34.021Z,95853.50
2024-01-15T15:50:01.060Z,95857.96
2024-01-15T15:52:28.250Z,95856.25
2024-01-15T15:54:55.025Z,95856.88
2024-01-15T15:57:21.930Z,95857.48
2024-01-15T15:59:48.882Z,95863.94
2024-01-15T16:02:15.846Z,95866.09
2024-01-15T16:04:42.474Z,95868.41
2024-01-15T16:07:10.485Z,95867.63
2024-01-15T16:09:37.432Z,95870.94
2024-01-15T16:12:04.731Z,95866.40
2024-01-15T16:14:31.672Z,95872.31
2024-01-15T16:23:13.439Z,95867.09
2024-01-15T16:23:26.916Z,95863.86
2024-01-15T16:23:42.319Z,95868.23
2024-01-15T16:25:19.787Z,95860.16
2024-01-15T16:27:46.990Z,95855.00
2024-01-15T16:30:24.747Z,95859.77
2024-01-15T16:32:56.511Z,95864.24
2024-01-15T16:35:23.708Z,95865.31
2024-01-15T16:37:50.464Z,95860.39
2024-01-15T16:40:17.119Z,95862.23
2024-01-15T16:42:43.623Z,95865.31
2024-01-15T16:45:10.357Z,95870.32
2024-01-15T16:47:36.970Z,95873.45
2024-01-15T16:50:05.178Z,95875.23
2024-01-15T16:52:31.919Z,95872.69
2024-01-15T16:54:58.447Z,95868.54
2024-01-15T16:57:25.082Z,95871.30
2024-01-15T16:59:51.617Z,95868.77
2024-01-15T17:02:18.207Z,95874.30
2024-01-15T17:04:45.042Z,95875.07
2024-01-15T17:07:11.723Z,95877.60
2024-01-15T17:09:38.358Z,95876.06
2024-01-15T17:12:05.117Z,95882.83
2024-01-15T17:14:32.030Z,95881.59
2024-01-15T17:17:01.975Z,95882.20
2024-01-15T17:19:29.005Z,95881.75
2024-01-15T17:21:55.530Z,95885.89
2024-01-15T17:24:22.170Z,95890.04
2024-01-15T17:26:49.742Z,95886.04
2024-01-15T17:29:17.134Z,95888.12
2024-01-15T17:31:43.747Z,95887.19
2024-01-15T17:34:11.013Z,95890.89
2024-01-15T17:36:37.712Z,95896.70
2024-01-15T17:39:06.191Z,95891.45
2024-01-15T17:41:36.099Z,95901.45
2024-01-15T17:44:02.841Z,95900.20
2024-01-15T17:46:30.359Z,95906.27
2024-01-15T17:49:03.086Z,95903.48
2024-01-15T17:51:33.091Z,95904.77
2024-01-15T17:53:59.797Z,95908.52
2024-01-15T17:56:26.623Z,95911.83
2024-01-15T17:58:53.416Z,95905.45
2024-01-15T18:01:19.960Z,95902.29
2024-01-15T18:03:46.804Z,95898.89
2024-01-15T18:06:13.693Z,95904.02
2024-01-15T18:08:41.056Z,95902.56
2024-01-15T18:11:07.635Z,95906.23
2024-01-15T18:13:34.280Z,95910.83
2024-01-15T18:16:00.891Z,95908.59
2024-01-15T18:18:28.009Z,95903.98
2024-01-15T18:20:54.788Z,95902.87
2024-01-15T18:23:21.385Z,95904.48
2024-01-15T18:25:47.951Z,95901.56
2024-01-15T18:28:15.519Z,95906.26
2024-01-15T18:30:42.296Z,95902.48
2024-01-15T18:33:09.178Z,95897.80
2024-01-15T18:35:35.921Z,95893.41
2024-01-15T18:38:02.800Z,95893.70
2024-01-15T18:40:35.453Z,95891.06
2024-01-15T18:43:02.602Z,95886.52
2024-01-15T18:45:29.238Z,95886.38
2024-01-15T18:47:56.467Z,95886.15
2024-01-15T18:50:23.252Z,95888.23
2024-01-15T18:52:49.972Z,95894.52
2024-01-15T18:55:18.242Z,95896.17
2024-01-15T18:57:44.882Z,95895.02
2024-01-15T19:00:12.635Z,95898.86
2024-01-15T19:02:39.366Z,95904.77
2024-01-15T19:05:06.764Z,95901.79
2024-01-15T19:07:37.158Z,95898.18
2024-01-15T19:10:04.155Z,95896.02
2024-01-15T19:12:30.838Z,95895.92
2024-01-15T19:14:57.473Z,95901.14
2024-01-15T19:17:24.029Z,95899.21
2024-01-15T19:19:51.773Z,95892.45
2024-01-15T19:22:21.479Z,95896.73
2024-01-15T19:24:48.025Z,95892.66
2024-01-15T19:27:14.549Z,95896.03
2024-01-15T19:29:41.267Z,95901.40
2024-01-15T19:32:08.124Z,95901.70
2024-01-15T19:34:38.333Z,95893.94
2024-01-15T19:37:05.403Z,95895.33
2024-01-15T19:39:32.951Z,95895.25
2024-01-15T19:42:00.714Z,95897.06
2024-01-15T19:44:27.875Z,95901.81
2024-01-15T19:46:54.503Z,95902.59
2024-01-15T19:49:21.166Z,95898.89
2024-01-15T19:51:47.975Z,95900.42
2024-01-15T19:54:14.622Z,95901.05
2024-01-15T19:56:41.276Z,95900.27
2024-01-15T19:59:08.360Z,95902.88
2024-01-15T20:01:35.060Z,95898.19
2024-01-15T20:04:02.391Z,95901.62
2024-01-15T20:06:29.158Z,95904.16
2024-01-15T20:08:55.860Z,95899.16
2024-01-15T20:11:22.516Z,95897.55
2024-01-15T20:13:49.256Z,95901.70
2024-01-15T20:16:16.490Z,95902.08
2024-01-15T20:18:43.315Z,95897.15
2024-01-15T20:21:10.890Z,95896.84
2024-01-15T20:23:43.140Z,95892.77
2024-01-15T20:26:17.921Z,95902.89
2024-01-15T20:28:47.405Z,95906.27
2024-01-15T20:31:14.336Z,95905.64
2024-01-15T20:33:41.402Z,95897.35
2024-01-15T20:36:08.937Z,95900.12
2024-01-15T20:38:40.098Z,95898.35
2024-01-15T20:41:06.934Z,95894.59
2024-01-15T20:43:34.690Z,95896.55
2024-01-15T20:46:02.367Z,95898.64
2024-01-15T20:48:29.963Z,95902.86
2024-01-15T20:50:58.587Z,95907.63
2024-01-15T20:53:25.127Z,95915.38
2024-01-15T20:55:51.853Z,95920.38
2024-01-15T20:58:24.742Z,95916.68
2024-01-15T21:00:51.423Z,95916.30
2024-01-15T21:03:18.880Z,95920.83
2024-01-15T21:05:46.008Z,95925.73
2024-01-15T21:08:12.740Z,95925.36
2024-01-15T21:10:39.463Z,95935.80
2024-01-15T21:13:07.018Z,95938.71
2024-01-15T21:15:34.164Z,95958.61
2024-01-15T21:18:01.110Z,95958.84
2024-01-15T21:20:27.809Z,95957.38
2024-01-15T21:22:54.496Z,95960.30
2024-01-15T21:25:21.426Z,95958.45
2024-01-15T21:27:48.061Z,95966.75
2024-01-15T21:30:17.773Z,95965.98
2024-01-15T21:32:45.104Z,95958.98
2024-01-15T21:35:14.859Z,95959.38
2024-01-15T21:37:41.983Z,95955.77
2024-01-15T21:40:10.829Z,95946.79
2024-01-15T21:42:40.781Z,95945.42
2024-01-15T21:45:08.011Z,95943.21
2024-01-15T21:47:37.125Z,95944.45
2024-01-15T21:50:09.265Z,95943.85
2024-01-15T21:52:36.253Z,95944.02
2024-01-15T21:55:03.407Z,95946.80
2024-01-15T21:57:30.433Z,95951.19
2024-01-15T21:59:57.221Z,95960.20
2024-01-15T22:02:23.852Z,95961.98
2024-01-15T22:04:50.445Z,95960.14
2024-01-15T22:07:17.083Z,95958.92
2024-01-15T22:09:43.616Z,95955.86
2024-01-15T22:12:10.607Z,95957.02
2024-01-15T22:14:37.759Z,95966.02
2024-01-15T22:17:04.889Z,95969.95
2024-01-15T22:19:34.485Z,95973.11
2024-01-15T22:22:00.996Z,95970.98
2024-01-15T22:24:27.475Z,95967.14
2024-01-15T22:26:54.782Z,95965.23
2024-01-15T22:29:21.338Z,95963.33
2024-01-15T22:31:47.848Z,95963.48
2024-01-15T22:34:18.061Z,95960.33
2024-01-15T22:36:44.615Z,95960.03
2024-01-15T22:39:11.134Z,95955.50
2024-01-15T22:41:37.657Z,95957.10
2024-01-15T22:44:04.434Z,95952.65
2024-01-15T22:46:31.200Z,95958.27
2024-01-15T22:48:57.905Z,95961.35
2024-01-15T22:51:24.834Z,95968.09
2024-01-15T22:53:53.128Z,95969.86
2024-01-15T22:56:21.709Z,95961.56
2024-01-15T22:58:48.634Z,95952.78
2024-01-15T23:01:15.230Z,95944.41
2024-01-15T23:03:41.998Z,95939.87
2024-01-15T23:06:21.239Z,95952.54
2024-01-15T23:08:49.276Z,95951.61
2024-01-15T23:11:15.881Z,95945.14
2024-01-15T23:13:43.297Z,95939.29
2024-01-15T23:16:13.872Z,95937.59
2024-01-15T23:18:42.154Z,95939.52
2024-01-15T23:21:09.557Z,95944.89
2024-01-15T23:23:36.721Z,95951.73
2024-01-15T23:26:03.775Z,95953.64
2024-01-15T23:28:31.512Z,95953.25
2024-01-15T23:30:58.148Z,95943.02
2024-01-15T23:33:24.922Z,95929.20
2024-01-15T23:35:53.086Z,95931.41
2024-01-15T23:38:21.149Z,95931.02
2024-01-15T23:40:47.875Z,95933.86
2024-01-15T23:43:14.352Z,95938.23
2024-01-15T23:45:41.969Z,95934.78
2024-01-15T23:48:08.740Z,95927.39
2024-01-15T23:50:35.710Z,95918.95
2024-01-15T23:53:02.310Z,95932.08
2024-01-15T23:55:29.025Z,95941.30
2024-01-15T23:57:57.558Z,95942.92
